sensor_id;sensor_type;location;lat;lon;timestamp;pressure;altitude;pressure_sealevel;temperature;humidity
65897;BME280;52677;50.898;10.854;2022-09-29T00:01:58;97042.03;;;4.56;100.00
65897;BME280;52677;50.898;10.854;2022-09-29T00:03:58;97042.81;;;4.56;100.00
65897;BME280;52677;50.898;10.854;2022-09-29T00:05:58;97033.84;;;4.59;100.00
65897;BME280;52677;50.898;10.854;2022-09-29T00:07:59;97027.19;;;4.60;100.00
65897;BME280;52677;50.898;10.854;2022-09-29T00:09:59;97031.91;;;4.60;100.00
65897;BME280;52677;50.898;10.854;2022-09-29T00:12:00;97032.22;;;4.55;100.00
65897;BME280;52677;50.898;10.854;2022-09-29T00:14:00;97036.50;;;4.52;100.00
65897;BME280;52677;50.898;10.854;2022-09-29T00:16:02;97036.50;;;4.52;100.00
65897;BME280;52677;50.898;10.854;2022-09-29T00:18:02;97032.22;;;4.55;100.00
65897;BME280;52677;50.898;10.854;2022-09-29T00:20:04;97037.69;;;4.55;100.00
65897;BME280;52677;50.898;10.854;2022-09-29T00:22:04;97047.53;;;4.59;100.00
65897;BME280;52677;50.898;10.854;2022-09-29T00:24:05;97033.44;;;4.57;100.00
65897;BME280;52677;50.898;10.854;2022-09-29T00:26:11;97039.72;;;4.61;100.00
65897;BME280;52677;50.898;10.854;2022-09-29T00:28:12;97034.22;;;4.58;100.00
65897;BME280;52677;50.898;10.854;2022-09-29T00:30:13;97039.31;;;4.59;100.00
65897;BME280;52677;50.898;10.854;2022-09-29T00:32:13;97035.00;;;4.58;100.00
65897;BME280;52677;50.898;10.854;2022-09-29T00:34:14;97038.06;;;4.53;100.00
65897;BME280;52677;50.898;10.854;2022-09-29T00:36:16;97036.91;;;4.54;100.00
65897;BME280;52677;50.898;10.854;2022-09-29T00:38:17;97033.44;;;4.57;100.00
65897;BME280;52677;50.898;10.854;2022-09-29T00:40:18;97027.97;;;4.57;100.00
65897;BME280;52677;50.898;10.854;2022-09-29T00:42:19;97026.81;;;4.62;100.00
65897;BME280;52677;50.898;10.854;2022-09-29T00:48:30;97030.81;;;4.68;100.00
65897;BME280;52677;50.898;10.854;2022-09-29T00:50:39;97034.41;;;4.72;100.00
65897;BME280;52677;50.898;10.854;2022-09-29T00:53:08;97028.91;;;4.72;100.00
65897;BME280;52677;50.898;10.854;2022-09-29T00:55:24;97026.97;;;4.72;100.00
65897;BME280;52677;50.898;10.854;2022-09-29T00:57:30;97025.41;;;4.75;100.00
65897;BME280;52677;50.898;10.854;2022-09-29T00:59:39;97022.28;;;4.73;100.00
65897;BME280;52677;50.898;10.854;2022-09-29T01:01:41;97023.47;;;4.75;100.00
65897;BME280;52677;50.898;10.854;2022-09-29T01:03:44;97019.22;;;4.82;100.00
65897;BME280;52677;50.898;10.854;2022-09-29T01:05:49;97010.63;;;4.83;100.00
65897;BME280;52677;50.898;10.854;2022-09-29T01:07:51;97008.69;;;4.87;100.00
65897;BME280;52677;50.898;10.854;2022-09-29T01:09:53;97011.88;;;4.89;100.00
65897;BME280;52677;50.898;10.854;2022-09-29T01:11:55;97013.81;;;4.89;100.00
65897;BME280;52677;50.898;10.854;2022-09-29T01:14:03;97014.19;;;4.87;100.00
65897;BME280;52677;50.898;10.854;2022-09-29T01:16:05;97015.78;;;4.88;100.00
65897;BME280;52677;50.898;10.854;2022-09-29T01:18:05;97025.59;;;4.93;100.00
65897;BME280;52677;50.898;10.854;2022-09-29T01:22:45;97019.81;;;5.01;100.00
65897;BME280;52677;50.898;10.854;2022-09-29T01:24:57;97022.97;;;5.03;100.00
65897;BME280;52677;50.898;10.854;2022-09-29T01:27:31;97022.66;;;5.12;100.00
65897;BME280;52677;50.898;10.854;2022-09-29T01:29:56;97017.59;;;5.14;100.00
65897;BME280;52677;50.898;10.854;2022-09-29T01:36:34;97012.84;;;5.11;100.00
65897;BME280;52677;50.898;10.854;2022-09-29T01:43:48;97026.53;;;5.07;100.00
65897;BME280;52677;50.898;10.854;2022-09-29T01:46:00;97030.00;;;5.04;100.00
65897;BME280;52677;50.898;10.854;2022-09-29T01:48:08;97028.03;;;5.01;100.00
65897;BME280;52677;50.898;10.854;2022-09-29T01:50:19;97030.00;;;5.01;100.00
65897;BME280;52677;50.898;10.854;2022-09-29T01:52:25;97032.72;;;4.97;100.00
65897;BME280;52677;50.898;10.854;2022-09-29T01:54:57;97024.84;;;4.96;100.00
65897;BME280;52677;50.898;10.854;2022-09-29T01:57:22;97031.88;;;4.93;100.00
65897;BME280;52677;50.898;10.854;2022-09-29T01:59:33;97029.91;;;4.94;100.00
65897;BME280;52677;50.898;10.854;2022-09-29T02:01:37;97028.75;;;4.95;100.00
65897;BME280;52677;50.898;10.854;2022-09-29T02:03:43;97027.97;;;4.94;100.00
65897;BME280;52677;50.898;10.854;2022-09-29T02:05:53;97016.19;;;4.90;100.00
65897;BME280;52677;50.898;10.854;2022-09-29T02:07:57;97023.25;;;4.91;100.00
65897;BME280;52677;50.898;10.854;2022-09-29T02:10:06;97024.03;;;4.92;100.00
65897;BME280;52677;50.898;10.854;2022-09-29T02:12:13;97026.38;;;4.93;100.00
65897;BME280;52677;50.898;10.854;2022-09-29T02:14:23;97027.19;;;4.94;100.00
65897;BME280;52677;50.898;10.854;2022-09-29T02:16:28;97025.22;;;4.94;100.00
65897;BME280;52677;50.898;10.854;2022-09-29T02:18:33;97037.34;;;4.93;100.00
65897;BME280;52677;50.898;10.854;2022-09-29T02:20:36;97038.91;;;4.94;100.00
65897;BME280;52677;50.898;10.854;2022-09-29T02:22:38;97040.94;;;4.97;100.00
65897;BME280;52677;50.898;10.854;2022-09-29T02:24:39;97036.97;;;4.95;100.00
65897;BME280;52677;50.898;10.854;2022-09-29T02:26:40;97032.31;;;4.99;100.00
65897;BME280;52677;50.898;10.854;2022-09-29T02:28:43;97038.19;;;4.97;100.00
65897;BME280;52677;50.898;10.854;2022-09-29T02:30:44;97033.91;;;5.00;100.00
65897;BME280;52677;50.898;10.854;2022-09-29T02:32:47;97040.94;;;5.01;100.00
65897;BME280;52677;50.898;10.854;2022-09-29T02:34:49;97033.13;;;4.99;100.00
65897;BME280;52677;50.898;10.854;2022-09-29T02:37:13;97040.94;;;5.01;100.00
65897;BME280;52677;50.898;10.854;2022-09-29T02:42:06;97048.41;;;5.04;100.00
65897;BME280;52677;50.898;10.854;2022-09-29T02:46:34;97055.13;;;5.06;100.00
65897;BME280;52677;50.898;10.854;2022-09-29T02:48:46;97044.56;;;5.08;100.00
65897;BME280;52677;50.898;10.854;2022-09-29T03:00:06;97047.31;;;5.08;100.00
65897;BME280;52677;50.898;10.854;2022-09-29T03:02:08;97053.56;;;5.09;100.00
65897;BME280;52677;50.898;10.854;2022-09-29T03:04:08;97050.84;;;5.13;100.00
65897;BME280;52677;50.898;10.854;2022-09-29T03:06:10;97057.56;;;5.15;100.00
65897;BME280;52677;50.898;10.854;2022-09-29T03:08:10;97057.56;;;5.15;100.00
65897;BME280;52677;50.898;10.854;2022-09-29T03:10:12;97054.44;;;5.20;100.00
65897;BME280;52677;50.898;10.854;2022-09-29T03:12:13;97050.94;;;5.20;100.00
65897;BME280;52677;50.898;10.854;2022-09-29T03:14:13;97062.31;;;5.22;100.00
65897;BME280;52677;50.898;10.854;2022-09-29T03:16:13;97048.56;;;5.18;100.00
65897;BME280;52677;50.898;10.854;2022-09-29T03:18:14;97051.69;;;5.17;100.00
65897;BME280;52677;50.898;10.854;2022-09-29T03:20:15;97053.59;;;5.13;100.00
65897;BME280;52677;50.898;10.854;2022-09-29T03:22:15;97050.91;;;5.16;100.00
65897;BME280;52677;50.898;10.854;2022-09-29T03:24:15;97052.88;;;5.19;100.00
65897;BME280;52677;50.898;10.854;2022-09-29T03:26:15;97052.47;;;5.17;100.00
65897;BME280;52677;50.898;10.854;2022-09-29T03:28:16;97054.06;;;5.18;100.00
65897;BME280;52677;50.898;10.854;2022-09-29T03:30:17;97058.75;;;5.18;100.00
65897;BME280;52677;50.898;10.854;2022-09-29T03:32:18;97049.72;;;5.17;100.00
65897;BME280;52677;50.898;10.854;2022-09-29T03:34:18;97051.28;;;5.15;100.00
65897;BME280;52677;50.898;10.854;2022-09-29T03:36:18;97049.72;;;5.14;100.00
65897;BME280;52677;50.898;10.854;2022-09-29T03:38:18;97046.53;;;5.12;100.00
65897;BME280;52677;50.898;10.854;2022-09-29T03:40:19;97050.84;;;5.13;100.00
65897;BME280;52677;50.898;10.854;2022-09-29T03:42:19;97045.81;;;5.15;100.00
65897;BME280;52677;50.898;10.854;2022-09-29T03:44:23;97052.06;;;5.15;100.00
65897;BME280;52677;50.898;10.854;2022-09-29T03:46:23;97058.75;;;5.18;100.00
65897;BME280;52677;50.898;10.854;2022-09-29T03:48:24;97056.78;;;5.18;100.00
65897;BME280;52677;50.898;10.854;2022-09-29T03:50:25;97061.53;;;5.21;100.00
65897;BME280;52677;50.898;10.854;2022-09-29T03:52:26;97061.09;;;5.19;100.00
65897;BME280;52677;50.898;10.854;2022-09-29T03:54:26;97061.53;;;5.21;100.00
65897;BME280;52677;50.898;10.854;2022-09-29T03:56:27;97067.44;;;5.23;100.00
65897;BME280;52677;50.898;10.854;2022-09-29T03:58:27;97061.16;;;5.23;100.00
65897;BME280;52677;50.898;10.854;2022-09-29T04:00:27;97066.66;;;5.23;100.00
65897;BME280;52677;50.898;10.854;2022-09-29T04:02:28;97065.06;;;5.22;100.00
65897;BME280;52677;50.898;10.854;2022-09-29T04:04:28;97066.22;;;5.21;100.00
65897;BME280;52677;50.898;10.854;2022-09-29T04:06:29;97068.59;;;5.22;100.00
65897;BME280;52677;50.898;10.854;2022-09-29T04:08:29;97073.28;;;5.22;100.00
65897;BME280;52677;50.898;10.854;2022-09-29T04:10:30;97070.91;;;5.20;100.00
65897;BME280;52677;50.898;10.854;2022-09-29T04:12:32;97068.94;;;5.21;100.00
65897;BME280;52677;50.898;10.854;2022-09-29T04:14:33;97063.06;;;5.19;100.00
65897;BME280;52677;50.898;10.854;2022-09-29T04:16:33;97067.38;;;5.20;100.00
65897;BME280;52677;50.898;10.854;2022-09-29T04:18:34;97071.69;;;5.21;100.00
65897;BME280;52677;50.898;10.854;2022-09-29T04:20:36;97063.13;;;5.22;100.00
65897;BME280;52677;50.898;10.854;2022-09-29T04:22:37;97067.44;;;5.23;100.00
65897;BME280;52677;50.898;10.854;2022-09-29T04:24:37;97076.44;;;5.24;100.00
65897;BME280;52677;50.898;10.854;2022-09-29T04:26:37;97074.47;;;5.24;100.00
65897;BME280;52677;50.898;10.854;2022-09-29T04:28:39;97064.69;;;5.23;100.00
65897;BME280;52677;50.898;10.854;2022-09-29T04:30:39;97065.13;;;5.29;100.00
65897;BME280;52677;50.898;10.854;2022-09-29T04:32:39;97072.59;;;5.32;100.00
65897;BME280;52677;50.898;10.854;2022-09-29T04:34:40;97065.16;;;5.32;100.00
65897;BME280;52677;50.898;10.854;2022-09-29T04:36:40;97078.09;;;5.32;100.00
65897;BME280;52677;50.898;10.854;2022-09-29T04:38:40;97067.50;;;5.30;100.00
65897;BME280;52677;50.898;10.854;2022-09-29T04:40:40;97072.63;;;5.35;100.00
65897;BME280;52677;50.898;10.854;2022-09-29T04:42:41;97068.34;;;5.38;100.00
65897;BME280;52677;50.898;10.854;2022-09-29T04:44:41;97067.19;;;5.39;100.00
65897;BME280;52677;50.898;10.854;2022-09-29T04:46:41;97078.16;;;5.39;100.00
65897;BME280;52677;50.898;10.854;2022-09-29T04:48:42;97078.19;;;5.43;100.00
65897;BME280;52677;50.898;10.854;2022-09-29T04:50:42;97077.78;;;5.44;100.00
65897;BME280;52677;50.898;10.854;2022-09-29T04:52:43;97078.59;;;5.45;100.00
65897;BME280;52677;50.898;10.854;2022-09-29T04:54:44;97069.16;;;5.42;100.00
65897;BME280;52677;50.898;10.854;2022-09-29T04:56:47;97076.22;;;5.43;100.00
65897;BME280;52677;50.898;10.854;2022-09-29T04:58:47;97075.44;;;5.43;100.00
65897;BME280;52677;50.898;10.854;2022-09-29T05:00:47;97073.47;;;5.40;100.00
65897;BME280;52677;50.898;10.854;2022-09-29T05:02:48;97075.81;;;5.41;100.00
65897;BME280;52677;50.898;10.854;2022-09-29T05:04:48;97074.66;;;5.42;100.00
65897;BME280;52677;50.898;10.854;2022-09-29T05:06:48;97081.69;;;5.40;100.00
65897;BME280;52677;50.898;10.854;2022-09-29T05:08:49;97084.81;;;5.38;100.00
65897;BME280;52677;50.898;10.854;2022-09-29T05:10:49;97087.91;;;5.36;100.00
65897;BME280;52677;50.898;10.854;2022-09-29T05:12:50;97094.22;;;5.41;100.00
65897;BME280;52677;50.898;10.854;2022-09-29T05:14:51;97085.59;;;5.39;100.00
65897;BME280;52677;50.898;10.854;2022-09-29T05:16:54;97092.59;;;5.36;100.00
65897;BME280;52677;50.898;10.854;2022-09-29T05:18:54;97096.53;;;5.35;100.00
65897;BME280;52677;50.898;10.854;2022-09-29T05:20:55;97087.47;;;5.31;100.00
65897;BME280;52677;50.898;10.854;2022-09-29T05:22:56;97093.69;;;5.28;100.00
65897;BME280;52677;50.898;10.854;2022-09-29T05:24:57;97095.66;;;5.27;100.00
65897;BME280;52677;50.898;10.854;2022-09-29T05:26:57;97096.44;;;5.28;100.00
65897;BME280;52677;50.898;10.854;2022-09-29T05:28:58;97101.13;;;5.27;100.00
65897;BME280;52677;50.898;10.854;2022-09-29T05:31:05;97099.94;;;5.25;100.00
65897;BME280;52677;50.898;10.854;2022-09-29T05:33:06;97089.78;;;5.25;100.00
65897;BME280;52677;50.898;10.854;2022-09-29T05:35:07;97103.88;;;5.27;100.00
65897;BME280;52677;50.898;10.854;2022-09-29T05:37:07;97101.94;;;5.28;100.00
65897;BME280;52677;50.898;10.854;2022-09-29T05:39:09;97100.41;;;5.30;100.00
65897;BME280;52677;50.898;10.854;2022-09-29T05:41:11;97095.72;;;5.31;100.00
65897;BME280;52677;50.898;10.854;2022-09-29T05:43:11;97102.00;;;5.35;100.00
65897;BME280;52677;50.898;10.854;2022-09-29T05:45:12;97098.84;;;5.33;100.00
65897;BME280;52677;50.898;10.854;2022-09-29T05:47:12;97102.00;;;5.35;100.00
65897;BME280;52677;50.898;10.854;2022-09-29T05:49:12;97096.53;;;5.35;100.00
65897;BME280;52677;50.898;10.854;2022-09-29T05:51:15;97104.00;;;5.38;100.00
65897;BME280;52677;50.898;10.854;2022-09-29T05:53:15;97097.72;;;5.38;100.00
65897;BME280;52677;50.898;10.854;2022-09-29T05:55:16;97094.22;;;5.41;100.00
65897;BME280;52677;50.898;10.854;2022-09-29T05:57:17;97103.66;;;5.43;100.00
65897;BME280;52677;50.898;10.854;2022-09-29T05:59:18;97101.38;;;5.49;100.00
65897;BME280;52677;50.898;10.854;2022-09-29T06:01:20;97104.91;;;5.53;100.00
65897;BME280;52677;50.898;10.854;2022-09-29T06:03:21;97106.09;;;5.52;100.00
65897;BME280;52677;50.898;10.854;2022-09-29T06:05:21;97097.47;;;5.53;100.00
65897;BME280;52677;50.898;10.854;2022-09-29T06:07:21;97101.84;;;5.58;100.00
65897;BME280;52677;50.898;10.854;2022-09-29T06:09:22;97103.44;;;5.62;100.00
65897;BME280;52677;50.898;10.854;2022-09-29T06:11:25;97101.50;;;5.67;100.00
65897;BME280;52677;50.898;10.854;2022-09-29T06:13:26;97107.00;;;5.67;100.00
65897;BME280;52677;50.898;10.854;2022-09-29T06:15:26;97107.03;;;5.70;100.00
65897;BME280;52677;50.898;10.854;2022-09-29T06:17:27;97109.41;;;5.72;100.00
65897;BME280;52677;50.898;10.854;2022-09-29T06:19:27;97117.66;;;5.72;100.00
65897;BME280;52677;50.898;10.854;2022-09-29T06:21:28;97111.38;;;5.75;100.00
65897;BME280;52677;50.898;10.854;2022-09-29T06:23:29;97111.06;;;5.80;100.00
65897;BME280;52677;50.898;10.854;2022-09-29T06:25:29;97115.78;;;5.86;100.00
65897;BME280;52677;50.898;10.854;2022-09-29T06:27:29;97121.31;;;5.90;100.00
65897;BME280;52677;50.898;10.854;2022-09-29T06:29:30;97115.09;;;5.93;100.00
65897;BME280;52677;50.898;10.854;2022-09-29T06:31:31;97117.09;;;6.00;100.00
65897;BME280;52677;50.898;10.854;2022-09-29T06:33:33;97122.25;;;6.05;100.00
65897;BME280;52677;50.898;10.854;2022-09-29T06:35:33;97117.97;;;6.11;100.00
65897;BME280;52677;50.898;10.854;2022-09-29T06:37:53;97115.28;;;6.18;100.00
65897;BME280;52677;50.898;10.854;2022-09-29T06:39:55;97115.66;;;6.20;100.00
65897;BME280;52677;50.898;10.854;2022-09-29T06:41:55;97117.28;;;6.25;100.00
65897;BME280;52677;50.898;10.854;2022-09-29T06:43:56;97118.47;;;6.27;100.00
65897;BME280;52677;50.898;10.854;2022-09-29T06:45:56;97120.47;;;6.30;100.00
65897;BME280;52677;50.898;10.854;2022-09-29T06:47:58;97113.41;;;6.33;100.00
65897;BME280;52677;50.898;10.854;2022-09-29T06:49:59;97121.66;;;6.36;100.00
65897;BME280;52677;50.898;10.854;2022-09-29T06:52:00;97123.25;;;6.37;100.00
65897;BME280;52677;50.898;10.854;2022-09-29T06:54:01;97113.84;;;6.38;100.00
65897;BME280;52677;50.898;10.854;2022-09-29T06:56:02;97121.72;;;6.43;100.00
65897;BME280;52677;50.898;10.854;2022-09-29T06:58:02;97112.28;;;6.44;100.00
65897;BME280;52677;50.898;10.854;2022-09-29T07:00:03;97122.53;;;6.47;100.00
65897;BME280;52677;50.898;10.854;2022-09-29T07:02:05;97128.81;;;6.52;100.00
65897;BME280;52677;50.898;10.854;2022-09-29T07:04:06;97116.69;;;6.56;100.00
65897;BME280;52677;50.898;10.854;2022-09-29T07:06:09;97125.72;;;6.60;100.00
65897;BME280;52677;50.898;10.854;2022-09-29T07:08:10;97133.63;;;6.65;100.00
65897;BME280;52677;50.898;10.854;2022-09-29T07:10:10;97131.31;;;6.71;100.00
65897;BME280;52677;50.898;10.854;2022-09-29T07:12:10;97136.03;;;6.78;100.00
65897;BME280;52677;50.898;10.854;2022-09-29T07:14:12;97134.88;;;6.82;100.00
65897;BME280;52677;50.898;10.854;2022-09-29T07:16:13;97126.28;;;6.87;100.00
65897;BME280;52677;50.898;10.854;2022-09-29T07:18:13;97127.47;;;6.93;100.00
65897;BME280;52677;50.898;10.854;2022-09-29T07:20:14;97134.16;;;6.99;100.00
65897;BME280;52677;50.898;10.854;2022-09-29T07:22:14;97130.28;;;7.04;100.00
65897;BME280;52677;50.898;10.854;2022-09-29T07:24:15;97136.56;;;7.08;100.00
65897;BME280;52677;50.898;10.854;2022-09-29T07:26:16;97131.44;;;7.10;100.00
65897;BME280;52677;50.898;10.854;2022-09-29T07:28:17;97136.19;;;7.13;100.00
65897;BME280;52677;50.898;10.854;2022-09-29T07:30:17;97136.59;;;7.15;100.00
65897;BME280;52677;50.898;10.854;2022-09-29T07:32:18;97133.06;;;7.18;100.00
65897;BME280;52677;50.898;10.854;2022-09-29T07:34:19;97137.00;;;7.21;100.00
65897;BME280;52677;50.898;10.854;2022-09-29T07:36:20;97134.66;;;7.23;100.00
65897;BME280;52677;50.898;10.854;2022-09-29T07:38:20;97139.38;;;7.26;100.00
65897;BME280;52677;50.898;10.854;2022-09-29T07:40:22;97140.94;;;7.27;100.00
65897;BME280;52677;50.898;10.854;2022-09-29T07:42:22;97143.72;;;7.30;100.00
65897;BME280;52677;50.898;10.854;2022-09-29T07:44:23;97147.25;;;7.35;100.00
65897;BME280;52677;50.898;10.854;2022-09-29T07:46:23;97139.03;;;7.38;100.00
65897;BME280;52677;50.898;10.854;2022-09-29T07:48:24;97146.50;;;7.41;100.00
65897;BME280;52677;50.898;10.854;2022-09-29T07:50:25;97146.13;;;7.46;100.00
65897;BME280;52677;50.898;10.854;2022-09-29T07:52:25;97149.25;;;7.48;100.00
65897;BME280;52677;50.898;10.854;2022-09-29T07:54:25;97152.78;;;7.52;100.00
65897;BME280;52677;50.898;10.854;2022-09-29T07:56:26;97161.47;;;7.58;100.00
65897;BME280;52677;50.898;10.854;2022-09-29T07:58:26;97165.41;;;7.64;100.00
65897;BME280;52677;50.898;10.854;2022-09-29T08:00:27;97169.34;;;7.67;100.00
65897;BME280;52677;50.898;10.854;2022-09-29T08:02:31;97157.19;;;7.71;100.00
65897;BME280;52677;50.898;10.854;2022-09-29T08:04:31;97153.63;;;7.71;100.00
65897;BME280;52677;50.898;10.854;2022-09-29T08:06:31;97157.56;;;7.73;100.00
65897;BME280;52677;50.898;10.854;2022-09-29T08:08:37;97159.94;;;7.78;100.00
65897;BME280;52677;50.898;10.854;2022-09-29T08:10:38;97160.34;;;7.80;100.00
65897;BME280;52677;50.898;10.854;2022-09-29T08:12:38;97154.81;;;7.84;99.51
65897;BME280;52677;50.898;10.854;2022-09-29T08:14:38;97158.34;;;7.84;99.84
65897;BME280;52677;50.898;10.854;2022-09-29T08:16:39;97166.25;;;7.89;100.00
65897;BME280;52677;50.898;10.854;2022-09-29T08:18:39;97163.50;;;7.97;100.00
65897;BME280;52677;50.898;10.854;2022-09-29T08:20:40;97158.75;;;8.01;100.00
65897;BME280;52677;50.898;10.854;2022-09-29T08:22:40;97167.03;;;8.08;100.00
65897;BME280;52677;50.898;10.854;2022-09-29T08:24:41;97167.03;;;8.11;99.24
65897;BME280;52677;50.898;10.854;2022-09-29T08:26:42;97167.41;;;8.17;98.83
65897;BME280;52677;50.898;10.854;2022-09-29T08:28:43;97178.06;;;8.29;99.10
65897;BME280;52677;50.898;10.854;2022-09-29T08:30:44;97174.91;;;8.34;98.20
65897;BME280;52677;50.898;10.854;2022-09-29T08:32:50;97177.28;;;8.39;97.09
65897;BME280;52677;50.898;10.854;2022-09-29T08:34:50;97177.69;;;8.45;96.22
65897;BME280;52677;50.898;10.854;2022-09-29T08:36:51;97173.75;;;8.46;93.96
65897;BME280;52677;50.898;10.854;2022-09-29T08:38:53;97185.13;;;8.59;91.62
65897;BME280;52677;50.898;10.854;2022-09-29T08:40:55;97186.31;;;8.68;91.03
65897;BME280;52677;50.898;10.854;2022-09-29T08:43:33;97192.19;;;8.81;91.63
65897;BME280;52677;50.898;10.854;2022-09-29T08:45:42;97189.41;;;8.85;91.64
65897;BME280;52677;50.898;10.854;2022-09-29T08:47:46;97189.00;;;8.93;90.52
65897;BME280;52677;50.898;10.854;2022-09-29T08:49:54;97188.97;;;9.00;89.17
65897;BME280;52677;50.898;10.854;2022-09-29T08:52:02;97191.75;;;9.04;87.78
65897;BME280;52677;50.898;10.854;2022-09-29T08:56:24;97196.88;;;8.98;90.37
65897;BME280;52677;50.898;10.854;2022-09-29T08:58:25;97201.22;;;8.99;89.03
65897;BME280;52677;50.898;10.854;2022-09-29T09:00:36;97196.06;;;9.01;89.42
65897;BME280;52677;50.898;10.854;2022-09-29T09:09:47;97205.00;;;9.45;88.63
65897;BME280;52677;50.898;10.854;2022-09-29T09:12:14;97205.69;;;9.60;87.49
65897;BME280;52677;50.898;10.854;2022-09-29T09:21:43;97215.84;;;9.80;84.17
65897;BME280;52677;50.898;10.854;2022-09-29T09:23:52;97216.22;;;9.82;85.65
65897;BME280;52677;50.898;10.854;2022-09-29T09:25:57;97217.44;;;9.81;85.54
65897;BME280;52677;50.898;10.854;2022-09-29T09:28:16;97213.47;;;9.86;84.80
65897;BME280;52677;50.898;10.854;2022-09-29T09:30:18;97205.16;;;9.90;84.45
65897;BME280;52677;50.898;10.854;2022-09-29T09:32:24;97211.00;;;10.02;83.59
65897;BME280;52677;50.898;10.854;2022-09-29T09:34:43;97216.03;;;10.18;82.21
65897;BME280;52677;50.898;10.854;2022-09-29T09:39:10;97219.50;;;10.29;80.40
65897;BME280;52677;50.898;10.854;2022-09-29T09:41:16;97209.66;;;10.25;79.43
65897;BME280;52677;50.898;10.854;2022-09-29T09:43:25;97215.63;;;10.20;80.52
65897;BME280;52677;50.898;10.854;2022-09-29T09:45:32;97214.47;;;10.13;81.52
65897;BME280;52677;50.898;10.854;2022-09-29T09:47:40;97215.66;;;10.12;82.22
65897;BME280;52677;50.898;10.854;2022-09-29T09:49:44;97212.53;;;10.10;81.63
65897;BME280;52677;50.898;10.854;2022-09-29T09:51:53;97218.44;;;10.12;82.32
65897;BME280;52677;50.898;10.854;2022-09-29T09:53:57;97208.94;;;10.13;82.27
65897;BME280;52677;50.898;10.854;2022-09-29T09:56:18;97210.06;;;10.23;81.97
65897;BME280;52677;50.898;10.854;2022-09-29T10:02:55;97208.03;;;10.31;80.99
65897;BME280;52677;50.898;10.854;2022-09-29T10:04:56;97208.41;;;10.33;78.82
65897;BME280;52677;50.898;10.854;2022-09-29T10:06:57;97205.22;;;10.38;79.46
65897;BME280;52677;50.898;10.854;2022-09-29T10:08:57;97203.22;;;10.42;81.00
65897;BME280;52677;50.898;10.854;2022-09-29T10:10:58;97212.31;;;10.43;80.91
65897;BME280;52677;50.898;10.854;2022-09-29T10:13:04;97195.38;;;10.37;80.53
65897;BME280;52677;50.898;10.854;2022-09-29T10:15:17;97199.28;;;10.43;80.77
65897;BME280;52677;50.898;10.854;2022-09-29T10:17:22;97205.13;;;10.49;79.04
65897;BME280;52677;50.898;10.854;2022-09-29T10:19:57;97202.66;;;10.61;80.68
65897;BME280;52677;50.898;10.854;2022-09-29T10:22:11;97203.72;;;10.75;81.25
65897;BME280;52677;50.898;10.854;2022-09-29T10:24:26;97200.09;;;10.81;77.78
65897;BME280;52677;50.898;10.854;2022-09-29T10:26:38;97206.41;;;10.82;76.68
65897;BME280;52677;50.898;10.854;2022-09-29T10:28:46;97205.97;;;10.87;77.95
65897;BME280;52677;50.898;10.854;2022-09-29T10:30:48;97207.91;;;10.90;79.91
65897;BME280;52677;50.898;10.854;2022-09-29T10:32:54;97208.69;;;10.94;80.19
65897;BME280;52677;50.898;10.854;2022-09-29T10:35:19;97206.75;;;10.87;79.98
65897;BME280;52677;50.898;10.854;2022-09-29T10:37:25;97205.97;;;10.87;78.48
65897;BME280;52677;50.898;10.854;2022-09-29T10:39:44;97213.13;;;10.84;78.29
65897;BME280;52677;50.898;10.854;2022-09-29T10:41:50;97223.84;;;10.79;78.71
65897;BME280;52677;50.898;10.854;2022-09-29T10:43:53;97220.69;;;10.77;77.84
65897;BME280;52677;50.898;10.854;2022-09-29T10:45:54;97219.16;;;10.72;78.33
65897;BME280;52677;50.898;10.854;2022-09-29T10:52:31;97207.25;;;10.75;76.68
65897;BME280;52677;50.898;10.854;2022-09-29T10:54:35;97225.41;;;10.80;75.86
65897;BME280;52677;50.898;10.854;2022-09-29T10:56:45;97220.63;;;10.84;77.91
65897;BME280;52677;50.898;10.854;2022-09-29T10:59:01;97227.31;;;10.86;75.79
65897;BME280;52677;50.898;10.854;2022-09-29T11:01:08;97225.34;;;10.87;77.23
65897;BME280;52677;50.898;10.854;2022-09-29T11:03:21;97233.59;;;10.90;78.82
65897;BME280;52677;50.898;10.854;2022-09-29T11:05:23;97234.00;;;10.89;77.29
65897;BME280;52677;50.898;10.854;2022-09-29T11:07:23;97226.50;;;10.89;76.65
65897;BME280;52677;50.898;10.854;2022-09-29T11:09:29;97230.41;;;10.95;76.22
65897;BME280;52677;50.898;10.854;2022-09-29T11:11:33;97225.22;;;11.01;76.58
65897;BME280;52677;50.898;10.854;2022-09-29T11:13:38;97225.53;;;11.07;76.93
65897;BME280;52677;50.898;10.854;2022-09-29T11:15:39;97227.84;;;11.12;77.48
65897;BME280;52677;50.898;10.854;2022-09-29T11:17:48;97231.75;;;11.18;77.68
65897;BME280;52677;50.898;10.854;2022-09-29T11:19:50;97237.19;;;11.25;77.73
65897;BME280;52677;50.898;10.854;2022-09-29T11:24:35;97242.63;;;11.36;76.12
65897;BME280;52677;50.898;10.854;2022-09-29T11:26:59;97238.28;;;11.35;75.79
65897;BME280;52677;50.898;10.854;2022-09-29T11:29:07;97245.75;;;11.38;74.09
65897;BME280;52677;50.898;10.854;2022-09-29T11:31:37;97240.16;;;11.41;74.03
65897;BME280;52677;50.898;10.854;2022-09-29T11:36:16;97245.63;;;11.48;72.16
65897;BME280;52677;50.898;10.854;2022-09-29T11:45:52;97243.56;;;11.56;71.27
65897;BME280;52677;50.898;10.854;2022-09-29T11:57:58;97246.06;;;11.47;75.65
65897;BME280;52677;50.898;10.854;2022-09-29T12:01:54;97254.72;;;11.49;72.05
65897;BME280;52677;50.898;10.854;2022-09-29T12:04:12;97246.41;;;11.49;70.64
65897;BME280;52677;50.898;10.854;2022-09-29T12:06:29;97249.97;;;11.49;71.48
65897;BME280;52677;50.898;10.854;2022-09-29T12:10:57;97241.72;;;11.46;71.99
65897;BME280;52677;50.898;10.854;2022-09-29T12:13:16;97240.94;;;11.45;72.47
65897;BME280;52677;50.898;10.854;2022-09-29T12:17:27;97248.41;;;11.48;71.95